sensor_id;sensor_type;location;lat;lon;timestamp;P1;durP1;ratioP1;P2;durP2;ratioP2
7525;SDS011;3804;50.860;6.208;2023-03-14T00:01:55;3.00;;;1.47;;
7525;SDS011;3804;50.860;6.208;2023-03-14T00:04:22;5.17;;;1.83;;
7525;SDS011;3804;50.860;6.208;2023-03-14T00:06:49;3.60;;;1.60;;
7525;SDS011;3804;50.860;6.208;2023-03-14T00:09:16;4.33;;;1.60;;
7525;SDS011;3804;50.860;6.208;2023-03-14T00:11:43;6.83;;;2.20;;
7525;SDS011;3804;50.860;6.208;2023-03-14T00:14:10;8.40;;;1.83;;
7525;SDS011;3804;50.860;6.208;2023-03-14T00:16:37;6.50;;;1.90;;
7525;SDS011;3804;50.860;6.208;2023-03-14T00:19:03;6.83;;;1.60;;
7525;SDS011;3804;50.860;6.208;2023-03-14T00:21:30;2.60;;;1.20;;
7525;SDS011;3804;50.860;6.208;2023-03-14T00:23:57;3.73;;;1.03;;
7525;SDS011;3804;50.860;6.208;2023-03-14T00:26:24;1.30;;;0.60;;
7525;SDS011;3804;50.860;6.208;2023-03-14T00:28:52;2.07;;;0.90;;
7525;SDS011;3804;50.860;6.208;2023-03-14T00:31:19;4.13;;;1.20;;
7525;SDS011;3804;50.860;6.208;2023-03-14T00:33:45;4.97;;;1.10;;
7525;SDS011;3804;50.860;6.208;2023-03-14T00:36:16;3.60;;;1.20;;
7525;SDS011;3804;50.860;6.208;2023-03-14T00:38:44;3.30;;;1.40;;
7525;SDS011;3804;50.860;6.208;2023-03-14T00:41:12;6.47;;;1.27;;
7525;SDS011;3804;50.860;6.208;2023-03-14T00:43:40;5.73;;;1.20;;
7525;SDS011;3804;50.860;6.208;2023-03-14T00:46:07;7.30;;;1.30;;
7525;SDS011;3804;50.860;6.208;2023-03-14T00:48:35;7.00;;;1.60;;
7525;SDS011;3804;50.860;6.208;2023-03-14T00:51:02;6.63;;;1.83;;
7525;SDS011;3804;50.860;6.208;2023-03-14T00:53:29;4.47;;;1.10;;
7525;SDS011;3804;50.860;6.208;2023-03-14T00:55:56;3.23;;;1.33;;
7525;SDS011;3804;50.860;6.208;2023-03-14T00:58:23;6.33;;;1.53;;
7525;SDS011;3804;50.860;6.208;2023-03-14T01:00:49;5.70;;;1.67;;
7525;SDS011;3804;50.860;6.208;2023-03-14T01:03:16;5.60;;;1.43;;
7525;SDS011;3804;50.860;6.208;2023-03-14T01:05:43;4.37;;;1.20;;
7525;SDS011;3804;50.860;6.208;2023-03-14T01:08:10;4.80;;;1.40;;
7525;SDS011;3804;50.860;6.208;2023-03-14T01:10:38;4.10;;;1.07;;
7525;SDS011;3804;50.860;6.208;2023-03-14T01:13:07;5.77;;;1.67;;
7525;SDS011;3804;50.860;6.208;2023-03-14T01:15:35;5.73;;;1.70;;
7525;SDS011;3804;50.860;6.208;2023-03-14T01:18:03;2.67;;;1.07;;
7525;SDS011;3804;50.860;6.208;2023-03-14T01:20:29;3.00;;;1.07;;
7525;SDS011;3804;50.860;6.208;2023-03-14T01:22:56;7.60;;;1.67;;
7525;SDS011;3804;50.860;6.208;2023-03-14T01:25:23;3.63;;;1.03;;
7525;SDS011;3804;50.860;6.208;2023-03-14T01:27:50;3.90;;;1.13;;
7525;SDS011;3804;50.860;6.208;2023-03-14T01:30:17;5.23;;;1.20;;
7525;SDS011;3804;50.860;6.208;2023-03-14T01:32:43;3.53;;;1.23;;
7525;SDS011;3804;50.860;6.208;2023-03-14T01:35:10;4.10;;;1.20;;
7525;SDS011;3804;50.860;6.208;2023-03-14T01:37:38;5.07;;;1.13;;
7525;SDS011;3804;50.860;6.208;2023-03-14T01:40:10;3.90;;;1.57;;
7525;SDS011;3804;50.860;6.208;2023-03-14T01:42:36;6.60;;;1.50;;
7525;SDS011;3804;50.860;6.208;2023-03-14T01:45:03;3.73;;;1.53;;
7525;SDS011;3804;50.860;6.208;2023-03-14T01:47:30;5.03;;;1.57;;
7525;SDS011;3804;50.860;6.208;2023-03-14T01:50:04;3.87;;;1.33;;
7525;SDS011;3804;50.860;6.208;2023-03-14T01:52:37;4.73;;;1.30;;
7525;SDS011;3804;50.860;6.208;2023-03-14T01:55:12;5.27;;;1.30;;
7525;SDS011;3804;50.860;6.208;2023-03-14T01:57:44;6.40;;;1.80;;
7525;SDS011;3804;50.860;6.208;2023-03-14T02:00:14;8.03;;;1.70;;
7525;SDS011;3804;50.860;6.208;2023-03-14T02:02:46;6.90;;;2.10;;
7525;SDS011;3804;50.860;6.208;2023-03-14T02:05:17;6.17;;;1.50;;
7525;SDS011;3804;50.860;6.208;2023-03-14T02:07:58;5.83;;;1.47;;
7525;SDS011;3804;50.860;6.208;2023-03-14T02:10:34;4.87;;;1.50;;
7525;SDS011;3804;50.860;6.208;2023-03-14T02:13:03;4.80;;;1.33;;
7525;SDS011;3804;50.860;6.208;2023-03-14T02:15:53;4.57;;;1.50;;
7525;SDS011;3804;50.860;6.208;2023-03-14T02:18:53;9.57;;;1.97;;
7525;SDS011;3804;50.860;6.208;2023-03-14T02:21:42;7.00;;;2.00;;
7525;SDS011;3804;50.860;6.208;2023-03-14T02:24:17;5.63;;;1.57;;
7525;SDS011;3804;50.860;6.208;2023-03-14T02:29:32;5.43;;;1.70;;
7525;SDS011;3804;50.860;6.208;2023-03-14T02:32:01;8.80;;;2.33;;
7525;SDS011;3804;50.860;6.208;2023-03-14T02:34:28;8.30;;;2.50;;
7525;SDS011;3804;50.860;6.208;2023-03-14T02:36:55;8.37;;;1.80;;
7525;SDS011;3804;50.860;6.208;2023-03-14T02:39:26;8.67;;;1.70;;
7525;SDS011;3804;50.860;6.208;2023-03-14T02:41:55;8.30;;;2.30;;
7525;SDS011;3804;50.860;6.208;2023-03-14T02:44:22;5.50;;;1.70;;
7525;SDS011;3804;50.860;6.208;2023-03-14T02:46:49;7.87;;;1.80;;
7525;SDS011;3804;50.860;6.208;2023-03-14T02:49:16;6.43;;;1.83;;
7525;SDS011;3804;50.860;6.208;2023-03-14T02:51:43;6.47;;;2.00;;
7525;SDS011;3804;50.860;6.208;2023-03-14T02:54:11;5.37;;;1.83;;
7525;SDS011;3804;50.860;6.208;2023-03-14T02:56:38;4.13;;;1.80;;
7525;SDS011;3804;50.860;6.208;2023-03-14T02:59:06;6.00;;;2.00;;
7525;SDS011;3804;50.860;6.208;2023-03-14T03:01:43;8.53;;;2.10;;
7525;SDS011;3804;50.860;6.208;2023-03-14T03:04:10;7.37;;;1.90;;
7525;SDS011;3804;50.860;6.208;2023-03-14T03:06:36;6.40;;;1.83;;
7525;SDS011;3804;50.860;6.208;2023-03-14T03:09:03;7.53;;;1.90;;
7525;SDS011;3804;50.860;6.208;2023-03-14T03:11:30;8.83;;;2.07;;
7525;SDS011;3804;50.860;6.208;2023-03-14T03:13:58;6.33;;;1.73;;
7525;SDS011;3804;50.860;6.208;2023-03-14T03:16:26;7.43;;;1.90;;
7525;SDS011;3804;50.860;6.208;2023-03-14T03:18:53;4.87;;;1.60;;
7525;SDS011;3804;50.860;6.208;2023-03-14T03:21:20;4.80;;;1.87;;
7525;SDS011;3804;50.860;6.208;2023-03-14T03:23:50;6.40;;;1.53;;
7525;SDS011;3804;50.860;6.208;2023-03-14T03:26:16;4.63;;;1.50;;
7525;SDS011;3804;50.860;6.208;2023-03-14T03:28:43;6.47;;;1.50;;
7525;SDS011;3804;50.860;6.208;2023-03-14T03:31:13;3.60;;;1.00;;
7525;SDS011;3804;50.860;6.208;2023-03-14T03:33:40;7.57;;;1.33;;
7525;SDS011;3804;50.860;6.208;2023-03-14T03:36:07;2.67;;;0.90;;
7525;SDS011;3804;50.860;6.208;2023-03-14T03:38:37;4.47;;;1.30;;
7525;SDS011;3804;50.860;6.208;2023-03-14T03:41:05;3.43;;;1.07;;
7525;SDS011;3804;50.860;6.208;2023-03-14T03:43:32;3.87;;;1.10;;
7525;SDS011;3804;50.860;6.208;2023-03-14T03:46:04;3.00;;;0.90;;
7525;SDS011;3804;50.860;6.208;2023-03-14T03:48:31;4.33;;;1.53;;
7525;SDS011;3804;50.860;6.208;2023-03-14T03:51:01;2.60;;;1.00;;
7525;SDS011;3804;50.860;6.208;2023-03-14T03:53:29;4.20;;;0.97;;
7525;SDS011;3804;50.860;6.208;2023-03-14T03:56:03;2.70;;;1.10;;
7525;SDS011;3804;50.860;6.208;2023-03-14T03:58:30;2.53;;;1.47;;
7525;SDS011;3804;50.860;6.208;2023-03-14T04:00:56;2.73;;;1.10;;
7525;SDS011;3804;50.860;6.208;2023-03-14T04:03:23;3.20;;;0.87;;
7525;SDS011;3804;50.860;6.208;2023-03-14T04:06:04;1.57;;;0.60;;
7525;SDS011;3804;50.860;6.208;2023-03-14T04:08:34;2.67;;;0.90;;
7525;SDS011;3804;50.860;6.208;2023-03-14T04:11:01;2.63;;;0.83;;
7525;SDS011;3804;50.860;6.208;2023-03-14T04:13:50;2.03;;;0.70;;
7525;SDS011;3804;50.860;6.208;2023-03-14T04:16:19;3.40;;;0.50;;
7525;SDS011;3804;50.860;6.208;2023-03-14T04:18:46;2.57;;;0.90;;
7525;SDS011;3804;50.860;6.208;2023-03-14T04:21:14;1.23;;;0.60;;
7525;SDS011;3804;50.860;6.208;2023-03-14T04:23:47;1.20;;;0.70;;
7525;SDS011;3804;50.860;6.208;2023-03-14T04:26:15;3.67;;;0.83;;
7525;SDS011;3804;50.860;6.208;2023-03-14T04:28:43;2.33;;;0.60;;
7525;SDS011;3804;50.860;6.208;2023-03-14T04:31:11;1.53;;;0.30;;
7525;SDS011;3804;50.860;6.208;2023-03-14T04:33:40;2.63;;;0.90;;
7525;SDS011;3804;50.860;6.208;2023-03-14T04:36:10;2.57;;;0.63;;
7525;SDS011;3804;50.860;6.208;2023-03-14T04:38:37;0.97;;;0.40;;
7525;SDS011;3804;50.860;6.208;2023-03-14T04:41:04;1.47;;;0.53;;
7525;SDS011;3804;50.860;6.208;2023-03-14T04:43:32;0.80;;;0.40;;
7525;SDS011;3804;50.860;6.208;2023-03-14T04:46:06;2.13;;;0.40;;
7525;SDS011;3804;50.860;6.208;2023-03-14T04:48:33;0.80;;;0.50;;
7525;SDS011;3804;50.860;6.208;2023-03-14T04:51:00;0.80;;;0.40;;
7525;SDS011;3804;50.860;6.208;2023-03-14T04:53:30;0.33;;;0.30;;
7525;SDS011;3804;50.860;6.208;2023-03-14T04:55:59;0.33;;;0.30;;
7525;SDS011;3804;50.860;6.208;2023-03-14T04:58:33;1.70;;;0.40;;
7525;SDS011;3804;50.860;6.208;2023-03-14T05:01:01;1.03;;;0.30;;
7525;SDS011;3804;50.860;6.208;2023-03-14T05:03:37;3.63;;;0.43;;
7525;SDS011;3804;50.860;6.208;2023-03-14T05:06:37;0.30;;;0.30;;
7525;SDS011;3804;50.860;6.208;2023-03-14T05:09:09;0.57;;;0.40;;
7525;SDS011;3804;50.860;6.208;2023-03-14T05:11:38;0.20;;;0.20;;
7525;SDS011;3804;50.860;6.208;2023-03-14T05:14:29;1.33;;;0.40;;
7525;SDS011;3804;50.860;6.208;2023-03-14T05:16:58;2.67;;;0.40;;
7525;SDS011;3804;50.860;6.208;2023-03-14T05:19:44;1.07;;;0.50;;
7525;SDS011;3804;50.860;6.208;2023-03-14T05:22:13;0.60;;;0.60;;
7525;SDS011;3804;50.860;6.208;2023-03-14T05:24:52;0.53;;;0.30;;
7525;SDS011;3804;50.860;6.208;2023-03-14T05:27:41;0.53;;;0.40;;
7525;SDS011;3804;50.860;6.208;2023-03-14T05:30:31;2.43;;;0.30;;
7525;SDS011;3804;50.860;6.208;2023-03-14T05:33:18;0.43;;;0.30;;
7525;SDS011;3804;50.860;6.208;2023-03-14T05:36:04;0.57;;;0.57;;
7525;SDS011;3804;50.860;6.208;2023-03-14T05:38:51;1.13;;;0.47;;
7525;SDS011;3804;50.860;6.208;2023-03-14T05:41:23;0.30;;;0.30;;
7525;SDS011;3804;50.860;6.208;2023-03-14T05:43:55;1.47;;;0.30;;
7525;SDS011;3804;50.860;6.208;2023-03-14T05:46:54;2.07;;;0.80;;
7525;SDS011;3804;50.860;6.208;2023-03-14T05:49:44;1.47;;;0.50;;
7525;SDS011;3804;50.860;6.208;2023-03-14T05:52:33;0.20;;;0.20;;
7525;SDS011;3804;50.860;6.208;2023-03-14T05:55:24;0.40;;;0.20;;
7525;SDS011;3804;50.860;6.208;2023-03-14T05:57:54;1.17;;;0.40;;
7525;SDS011;3804;50.860;6.208;2023-03-14T06:00:41;2.27;;;0.47;;
7525;SDS011;3804;50.860;6.208;2023-03-14T06:03:31;0.87;;;0.40;;
7525;SDS011;3804;50.860;6.208;2023-03-14T06:05:57;1.90;;;0.33;;
7525;SDS011;3804;50.860;6.208;2023-03-14T06:08:24;0.53;;;0.30;;
7525;SDS011;3804;50.860;6.208;2023-03-14T06:10:51;0.37;;;0.33;;
7525;SDS011;3804;50.860;6.208;2023-03-14T06:13:24;0.67;;;0.43;;
7525;SDS011;3804;50.860;6.208;2023-03-14T06:15:50;0.40;;;0.40;;
7525;SDS011;3804;50.860;6.208;2023-03-14T06:18:17;0.80;;;0.80;;
7525;SDS011;3804;50.860;6.208;2023-03-14T06:20:44;0.43;;;0.40;;
7525;SDS011;3804;50.860;6.208;2023-03-14T06:23:19;1.77;;;0.43;;
7525;SDS011;3804;50.860;6.208;2023-03-14T06:25:46;1.00;;;0.37;;
7525;SDS011;3804;50.860;6.208;2023-03-14T06:28:13;0.47;;;0.40;;
7525;SDS011;3804;50.860;6.208;2023-03-14T06:30:40;0.30;;;0.30;;
7525;SDS011;3804;50.860;6.208;2023-03-14T06:33:09;0.73;;;0.60;;
7525;SDS011;3804;50.860;6.208;2023-03-14T06:35:36;2.60;;;0.70;;
7525;SDS011;3804;50.860;6.208;2023-03-14T06:38:03;0.33;;;0.30;;
7525;SDS011;3804;50.860;6.208;2023-03-14T06:40:29;0.47;;;0.40;;
7525;SDS011;3804;50.860;6.208;2023-03-14T06:43:03;0.67;;;0.67;;
7525;SDS011;3804;50.860;6.208;2023-03-14T06:45:32;0.97;;;0.60;;
7525;SDS011;3804;50.860;6.208;2023-03-14T06:48:01;1.47;;;0.63;;
7525;SDS011;3804;50.860;6.208;2023-03-14T06:50:37;0.50;;;0.50;;
7525;SDS011;3804;50.860;6.208;2023-03-14T06:53:04;0.50;;;0.50;;
7525;SDS011;3804;50.860;6.208;2023-03-14T06:55:33;0.40;;;0.40;;
7525;SDS011;3804;50.860;6.208;2023-03-14T06:58:00;1.03;;;0.60;;
7525;SDS011;3804;50.860;6.208;2023-03-14T07:00:26;0.50;;;0.50;;
7525;SDS011;3804;50.860;6.208;2023-03-14T07:02:56;0.50;;;0.50;;
7525;SDS011;3804;50.860;6.208;2023-03-14T07:05:27;0.43;;;0.43;;
7525;SDS011;3804;50.860;6.208;2023-03-14T07:07:54;0.53;;;0.53;;
7525;SDS011;3804;50.860;6.208;2023-03-14T07:10:22;0.40;;;0.40;;
7525;SDS011;3804;50.860;6.208;2023-03-14T07:12:49;0.40;;;0.40;;
7525;SDS011;3804;50.860;6.208;2023-03-14T07:15:16;0.53;;;0.53;;
7525;SDS011;3804;50.860;6.208;2023-03-14T07:18:07;0.40;;;0.40;;
7525;SDS011;3804;50.860;6.208;2023-03-14T07:20:34;0.60;;;0.60;;
7525;SDS011;3804;50.860;6.208;2023-03-14T07:23:01;0.93;;;0.40;;
7525;SDS011;3804;50.860;6.208;2023-03-14T07:25:55;0.30;;;0.30;;
7525;SDS011;3804;50.860;6.208;2023-03-14T07:28:24;0.50;;;0.40;;
7525;SDS011;3804;50.860;6.208;2023-03-14T07:30:57;0.60;;;0.47;;
7525;SDS011;3804;50.860;6.208;2023-03-14T07:33:29;0.73;;;0.50;;
7525;SDS011;3804;50.860;6.208;2023-03-14T07:35:56;0.30;;;0.30;;
7525;SDS011;3804;50.860;6.208;2023-03-14T07:38:23;0.47;;;0.40;;
7525;SDS011;3804;50.860;6.208;2023-03-14T07:41:09;0.90;;;0.50;;
7525;SDS011;3804;50.860;6.208;2023-03-14T07:43:41;0.50;;;0.50;;
7525;SDS011;3804;50.860;6.208;2023-03-14T07:46:08;1.50;;;0.53;;
7525;SDS011;3804;50.860;6.208;2023-03-14T07:48:35;0.50;;;0.50;;
7525;SDS011;3804;50.860;6.208;2023-03-14T07:51:02;0.50;;;0.50;;
7525;SDS011;3804;50.860;6.208;2023-03-14T07:53:28;0.57;;;0.57;;
7525;SDS011;3804;50.860;6.208;2023-03-14T07:55:55;0.60;;;0.53;;
7525;SDS011;3804;50.860;6.208;2023-03-14T07:58:22;0.70;;;0.60;;
7525;SDS011;3804;50.860;6.208;2023-03-14T08:00:50;0.43;;;0.40;;
7525;SDS011;3804;50.860;6.208;2023-03-14T08:03:16;1.00;;;0.63;;
7525;SDS011;3804;50.860;6.208;2023-03-14T08:05:43;0.93;;;0.60;;
7525;SDS011;3804;50.860;6.208;2023-03-14T08:08:11;0.70;;;0.70;;
7525;SDS011;3804;50.860;6.208;2023-03-14T08:10:37;1.47;;;0.53;;
7525;SDS011;3804;50.860;6.208;2023-03-14T08:13:04;0.70;;;0.70;;
7525;SDS011;3804;50.860;6.208;2023-03-14T08:15:31;1.10;;;0.63;;
7525;SDS011;3804;50.860;6.208;2023-03-14T08:17:58;2.83;;;0.87;;
7525;SDS011;3804;50.860;6.208;2023-03-14T08:20:26;1.40;;;1.00;;
7525;SDS011;3804;50.860;6.208;2023-03-14T08:22:54;1.50;;;0.67;;
7525;SDS011;3804;50.860;6.208;2023-03-14T08:25:21;0.77;;;0.77;;
7525;SDS011;3804;50.860;6.208;2023-03-14T08:27:48;0.97;;;0.50;;
7525;SDS011;3804;50.860;6.208;2023-03-14T08:30:15;0.67;;;0.67;;
7525;SDS011;3804;50.860;6.208;2023-03-14T08:32:42;2.37;;;1.30;;
7525;SDS011;3804;50.860;6.208;2023-03-14T08:35:09;0.60;;;0.60;;
7525;SDS011;3804;50.860;6.208;2023-03-14T08:37:37;1.00;;;0.83;;
7525;SDS011;3804;50.860;6.208;2023-03-14T08:40:04;3.67;;;1.00;;
7525;SDS011;3804;50.860;6.208;2023-03-14T08:42:33;1.87;;;0.90;;
7525;SDS011;3804;50.860;6.208;2023-03-14T08:44:59;1.70;;;0.90;;
7525;SDS011;3804;50.860;6.208;2023-03-14T08:47:26;1.80;;;0.90;;
7525;SDS011;3804;50.860;6.208;2023-03-14T08:49:53;1.07;;;0.70;;
7525;SDS011;3804;50.860;6.208;2023-03-14T08:52:19;1.23;;;0.40;;
7525;SDS011;3804;50.860;6.208;2023-03-14T08:54:46;2.50;;;0.60;;
7525;SDS011;3804;50.860;6.208;2023-03-14T08:57:13;0.70;;;0.60;;
7525;SDS011;3804;50.860;6.208;2023-03-14T08:59:39;1.27;;;0.50;;
7525;SDS011;3804;50.860;6.208;2023-03-14T09:02:08;0.50;;;0.50;;
7525;SDS011;3804;50.860;6.208;2023-03-14T09:04:38;0.40;;;0.40;;
7525;SDS011;3804;50.860;6.208;2023-03-14T09:07:05;0.63;;;0.60;;
7525;SDS011;3804;50.860;6.208;2023-03-14T09:09:32;0.70;;;0.60;;
7525;SDS011;3804;50.860;6.208;2023-03-14T09:11:59;2.97;;;0.80;;
7525;SDS011;3804;50.860;6.208;2023-03-14T09:14:26;0.60;;;0.60;;
7525;SDS011;3804;50.860;6.208;2023-03-14T09:16:52;0.63;;;0.63;;
7525;SDS011;3804;50.860;6.208;2023-03-14T09:19:19;1.10;;;0.83;;
7525;SDS011;3804;50.860;6.208;2023-03-14T09:21:46;0.67;;;0.60;;
7525;SDS011;3804;50.860;6.208;2023-03-14T09:24:13;2.07;;;1.00;;
7525;SDS011;3804;50.860;6.208;2023-03-14T09:26:40;0.50;;;0.50;;
7525;SDS011;3804;50.860;6.208;2023-03-14T09:29:07;0.70;;;0.63;;
7525;SDS011;3804;50.860;6.208;2023-03-14T09:31:35;0.90;;;0.47;;
7525;SDS011;3804;50.860;6.208;2023-03-14T09:34:02;0.60;;;0.60;;
7525;SDS011;3804;50.860;6.208;2023-03-14T09:36:29;0.50;;;0.50;;
7525;SDS011;3804;50.860;6.208;2023-03-14T09:38:56;2.87;;;0.70;;
7525;SDS011;3804;50.860;6.208;2023-03-14T09:41:24;0.70;;;0.70;;
7525;SDS011;3804;50.860;6.208;2023-03-14T09:44:27;1.30;;;1.17;;
7525;SDS011;3804;50.860;6.208;2023-03-14T09:46:46;2.27;;;1.00;;
7525;SDS011;3804;50.860;6.208;2023-03-14T09:49:37;1.20;;;0.83;;
7525;SDS011;3804;50.860;6.208;2023-03-14T09:52:05;2.13;;;0.60;;
7525;SDS011;3804;50.860;6.208;2023-03-14T09:54:37;1.27;;;0.70;;
7525;SDS011;3804;50.860;6.208;2023-03-14T09:57:05;1.43;;;0.93;;
7525;SDS011;3804;50.860;6.208;2023-03-14T09:59:32;1.23;;;1.07;;
7525;SDS011;3804;50.860;6.208;2023-03-14T10:02:01;1.67;;;1.10;;
7525;SDS011;3804;50.860;6.208;2023-03-14T10:04:36;1.17;;;0.90;;
7525;SDS011;3804;50.860;6.208;2023-03-14T10:07:09;3.17;;;1.17;;
7525;SDS011;3804;50.860;6.208;2023-03-14T10:09:39;2.03;;;1.03;;
7525;SDS011;3804;50.860;6.208;2023-03-14T10:12:07;1.70;;;1.20;;
7525;SDS011;3804;50.860;6.208;2023-03-14T10:14:36;2.77;;;1.47;;
7525;SDS011;3804;50.860;6.208;2023-03-14T10:17:08;3.03;;;1.10;;
7525;SDS011;3804;50.860;6.208;2023-03-14T10:19:36;2.27;;;1.13;;
7525;SDS011;3804;50.860;6.208;2023-03-14T10:22:04;1.40;;;1.30;;
7525;SDS011;3804;50.860;6.208;2023-03-14T10:24:32;1.63;;;1.53;;
7525;SDS011;3804;50.860;6.208;2023-03-14T10:29:32;3.73;;;1.70;;
7525;SDS011;3804;50.860;6.208;2023-03-14T10:34:29;2.07;;;1.87;;
7525;SDS011;3804;50.860;6.208;2023-03-14T10:36:57;2.33;;;1.80;;
7525;SDS011;3804;50.860;6.208;2023-03-14T10:41:56;3.57;;;2.30;;
7525;SDS011;3804;50.860;6.208;2023-03-14T10:44:28;4.40;;;2.00;;
7525;SDS011;3804;50.860;6.208;2023-03-14T10:47:04;2.30;;;2.10;;
7525;SDS011;3804;50.860;6.208;2023-03-14T10:49:32;1.83;;;1.63;;
7525;SDS011;3804;50.860;6.208;2023-03-14T10:52:12;3.00;;;2.00;;
7525;SDS011;3804;50.860;6.208;2023-03-14T10:54:39;3.10;;;2.00;;
7525;SDS011;3804;50.860;6.208;2023-03-14T10:57:06;1.90;;;1.80;;
7525;SDS011;3804;50.860;6.208;2023-03-14T10:59:37;2.90;;;1.70;;
7525;SDS011;3804;50.860;6.208;2023-03-14T11:02:12;2.07;;;1.90;;
7525;SDS011;3804;50.860;6.208;2023-03-14T11:04:59;1.80;;;1.70;;
7525;SDS011;3804;50.860;6.208;2023-03-14T11:12:39;2.47;;;1.67;;
7525;SDS011;3804;50.860;6.208;2023-03-14T11:20:26;4.30;;;1.30;;
7525;SDS011;3804;50.860;6.208;2023-03-14T11:30:52;3.70;;;1.40;;
7525;SDS011;3804;50.860;6.208;2023-03-14T11:33:24;2.47;;;2.07;;
7525;SDS011;3804;50.860;6.208;2023-03-14T11:35:58;3.03;;;1.73;;
7525;SDS011;3804;50.860;6.208;2023-03-14T11:38:40;3.73;;;1.50;;
7525;SDS011;3804;50.860;6.208;2023-03-14T11:41:17;3.10;;;1.30;;
7525;SDS011;3804;50.860;6.208;2023-03-14T11:43:52;3.37;;;1.10;;
7525;SDS011;3804;50.860;6.208;2023-03-14T11:46:21;1.17;;;0.60;;
7525;SDS011;3804;50.860;6.208;2023-03-14T11:49:06;0.67;;;0.67;;
7525;SDS011;3804;50.860;6.208;2023-03-14T11:51:38;2.03;;;0.90;;
7525;SDS011;3804;50.860;6.208;2023-03-14T11:54:14;0.90;;;0.77;;
7525;SDS011;3804;50.860;6.208;2023-03-14T11:59:17;1.10;;;0.90;;
7525;SDS011;3804;50.860;6.208;2023-03-14T12:01:49;2.03;;;0.80;;
7525;SDS011;3804;50.860;6.208;2023-03-14T12:04:20;2.03;;;1.07;;
7525;SDS011;3804;50.860;6.208;2023-03-14T12:06:49;1.93;;;1.40;;
7525;SDS011;3804;50.860;6.208;2023-03-14T12:09:19;1.77;;;1.30;;
7525;SDS011;3804;50.860;6.208;2023-03-14T12:14:18;3.37;;;1.40;;
7525;SDS011;3804;50.860;6.208;2023-03-14T12:16:46;1.90;;;1.43;;
7525;SDS011;3804;50.860;6.208;2023-03-14T12:19:21;3.63;;;1.50;;
7525;SDS011;3804;50.860;6.208;2023-03-14T12:22:01;2.50;;;1.30;;
7525;SDS011;3804;50.860;6.208;2023-03-14T12:24:33;2.23;;;1.40;;
7525;SDS011;3804;50.860;6.208;2023-03-14T12:27:02;5.60;;;1.70;;
7525;SDS011;3804;50.860;6.208;2023-03-14T12:29:29;7.67;;;1.97;;
7525;SDS011;3804;50.860;6.208;2023-03-14T12:41:53;3.20;;;1.90;;
7525;SDS011;3804;50.860;6.208;2023-03-14T12:46:57;3.40;;;1.83;;
7525;SDS011;3804;50.860;6.208;2023-03-14T12:49:31;4.07;;;1.87;;
7525;SDS011;3804;50.860;6.208;2023-03-14T12:51:59;7.50;;;1.90;;
7525;SDS011;3804;50.860;6.208;2023-03-14T12:59:38;5.07;;;2.00;;
7525;SDS011;3804;50.860;6.208;2023-03-14T13:04:47;6.37;;;2.20;;
7525;SDS011;3804;50.860;6.208;2023-03-14T13:07:31;9.83;;;1.73;;
7525;SDS011;3804;50.860;6.208;2023-03-14T13:10:03;5.47;;;1.83;;
7525;SDS011;3804;50.860;6.208;2023-03-14T13:12:42;4.73;;;1.70;;
7525;SDS011;3804;50.860;6.208;2023-03-14T13:15:14;5.87;;;1.83;;
7525;SDS011;3804;50.860;6.208;2023-03-14T13:17:43;9.10;;;2.13;;
7525;SDS011;3804;50.860;6.208;2023-03-14T13:20:30;10.63;;;2.03;;
7525;SDS011;3804;50.860;6.208;2023-03-14T13:22:58;9.67;;;2.73;;
7525;SDS011;3804;50.860;6.208;2023-03-14T13:25:24;11.03;;;3.00;;
7525;SDS011;3804;50.860;6.208;2023-03-14T13:27:55;6.70;;;2.27;;
7525;SDS011;3804;50.860;6.208;2023-03-14T13:30:24;4.20;;;1.40;;
7525;SDS011;3804;50.860;6.208;2023-03-14T13:32:52;7.97;;;2.10;;
7525;SDS011;3804;50.860;6.208;2023-03-14T13:35:21;10.30;;;1.93;;
7525;SDS011;3804;50.860;6.208;2023-03-14T13:37:52;9.90;;;2.10;;
7525;SDS011;3804;50.860;6.208;2023-03-14T13:40:35;8.43;;;1.97;;
7525;SDS011;3804;50.860;6.208;2023-03-14T13:43:03;6.30;;;2.00;;
7525;SDS011;3804;50.860;6.208;2023-03-14T13:45:30;7.83;;;1.80;;
7525;SDS011;3804;50.860;6.208;2023-03-14T13:47:57;7.63;;;2.10;;
7525;SDS011;3804;50.860;6.208;2023-03-14T13:50:24;9.57;;;1.80;;
7525;SDS011;3804;50.860;6.208;2023-03-14T13:52:56;6.90;;;2.00;;
7525;SDS011;3804;50.860;6.208;2023-03-14T13:55:24;11.60;;;2.40;;
7525;SDS011;3804;50.860;6.208;2023-03-14T13:57:52;14.37;;;2.77;;
7525;SDS011;3804;50.860;6.208;2023-03-14T14:00:26;9.43;;;3.00;;
7525;SDS011;3804;50.860;6.208;2023-03-14T14:02:54;8.63;;;2.13;;
7525;SDS011;3804;50.860;6.208;2023-03-14T14:05:21;7.97;;;2.83;;
7525;SDS011;3804;50.860;6.208;2023-03-14T14:07:48;7.23;;;2.57;;
7525;SDS011;3804;50.860;6.208;2023-03-14T14:10:16;11.13;;;2.67;;
7525;SDS011;3804;50.860;6.208;2023-03-14T14:12:44;11.27;;;2.70;;
7525;SDS011;3804;50.860;6.208;2023-03-14T14:15:18;8.77;;;2.90;;
7525;SDS011;3804;50.860;6.208;2023-03-14T14:17:47;10.53;;;2.87;;
7525;SDS011;3804;50.860;6.208;2023-03-14T14:20:19;13.33;;;3.00;;
7525;SDS011;3804;50.860;6.208;2023-03-14T14:22:46;12.33;;;2.47;;
7525;SDS011;3804;50.860;6.208;2023-03-14T14:25:13;10.30;;;2.87;;
7525;SDS011;3804;50.860;6.208;2023-03-14T14:27:42;10.10;;;2.63;;
7525;SDS011;3804;50.860;6.208;2023-03-14T14:30:29;13.00;;;2.57;;
7525;SDS011;3804;50.860;6.208;2023-03-14T14:33:10;13.77;;;2.80;;
7525;SDS011;3804;50.860;6.208;2023-03-14T14:35:37;16.27;;;3.30;;
7525;SDS011;3804;50.860;6.208;2023-03-14T14:38:08;11.70;;;2.60;;
7525;SDS011;3804;50.860;6.208;2023-03-14T14:40:43;14.17;;;2.63;;
7525;SDS011;3804;50.860;6.208;2023-03-14T14:43:10;8.47;;;3.17;;
7525;SDS011;3804;50.860;6.208;2023-03-14T14:45:38;13.17;;;3.23;;
7525;SDS011;3804;50.860;6.208;2023-03-14T14:48:06;9.07;;;3.00;;
7525;SDS011;3804;50.860;6.208;2023-03-14T14:50:34;11.53;;;3.13;;
7525;SDS011;3804;50.860;6.208;2023-03-14T14:53:21;11.37;;;2.70;;
7525;SDS011;3804;50.860;6.208;2023-03-14T14:55:52;19.13;;;3.37;;
7525;SDS011;3804;50.860;6.208;2023-03-14T14:58:27;11.47;;;2.90;;
7525;SDS011;3804;50.860;6.208;2023-03-14T15:03:21;13.67;;;3.13;;
7525;SDS011;3804;50.860;6.208;2023-03-14T15:05:48;14.03;;;3.13;;
7525;SDS011;3804;50.860;6.208;2023-03-14T15:08:14;14.63;;;3.27;;
7525;SDS011;3804;50.860;6.208;2023-03-14T15:10:41;19.73;;;3.17;;
7525;SDS011;3804;50.860;6.208;2023-03-14T15:13:08;13.70;;;2.57;;
7525;SDS011;3804;50.860;6.208;2023-03-14T15:15:39;11.07;;;2.93;;
7525;SDS011;3804;50.860;6.208;2023-03-14T15:18:11;11.90;;;3.10;;
7525;SDS011;3804;50.860;6.208;2023-03-14T15:20:39;13.53;;;3.33;;
7525;SDS011;3804;50.860;6.208;2023-03-14T15:23:10;12.53;;;3.03;;
7525;SDS011;3804;50.860;6.208;2023-03-14T15:25:37;10.73;;;3.07;;
7525;SDS011;3804;50.860;6.208;2023-03-14T15:28:21;12.50;;;3.27;;
7525;SDS011;3804;50.860;6.208;2023-03-14T15:30:49;11.27;;;3.33;;
7525;SDS011;3804;50.860;6.208;2023-03-14T15:33:17;16.37;;;3.20;;
7525;SDS011;3804;50.860;6.208;2023-03-14T15:35:44;16.33;;;4.63;;
7525;SDS011;3804;50.860;6.208;2023-03-14T15:38:12;12.13;;;3.53;;
7525;SDS011;3804;50.860;6.208;2023-03-14T15:40:39;17.27;;;3.93;;
7525;SDS011;3804;50.860;6.208;2023-03-14T15:43:07;13.33;;;3.77;;
7525;SDS011;3804;50.860;6.208;2023-03-14T15:45:34;14.27;;;3.20;;
7525;SDS011;3804;50.860;6.208;2023-03-14T15:48:02;13.47;;;3.83;;
7525;SDS011;3804;50.860;6.208;2023-03-14T15:50:29;10.77;;;4.43;;
7525;SDS011;3804;50.860;6.208;2023-03-14T15:52:55;15.10;;;4.00;;
7525;SDS011;3804;50.860;6.208;2023-03-14T15:55:22;19.03;;;4.17;;
7525;SDS011;3804;50.860;6.208;2023-03-14T15:57:49;11.80;;;3.70;;
7525;SDS011;3804;50.860;6.208;2023-03-14T16:00:17;13.80;;;5.07;;
7525;SDS011;3804;50.860;6.208;2023-03-14T16:02:44;7.47;;;2.90;;
7525;SDS011;3804;50.860;6.208;2023-03-14T16:05:11;8.67;;;2.93;;
7525;SDS011;3804;50.860;6.208;2023-03-14T16:07:39;9.33;;;3.63;;
7525;SDS011;3804;50.860;6.208;2023-03-14T16:10:06;12.60;;;3.97;;
7525;SDS011;3804;50.860;6.208;2023-03-14T16:12:33;9.87;;;3.67;;
7525;SDS011;3804;50.860;6.208;2023-03-14T16:15:00;15.57;;;4.10;;
7525;SDS011;3804;50.860;6.208;2023-03-14T16:17:27;10.40;;;3.90;;
7525;SDS011;3804;50.860;6.208;2023-03-14T16:19:54;11.60;;;4.43;;
7525;SDS011;3804;50.860;6.208;2023-03-14T16:22:20;13.37;;;4.53;;
7525;SDS011;3804;50.860;6.208;2023-03-14T16:24:47;10.03;;;4.87;;
7525;SDS011;3804;50.860;6.208;2023-03-14T16:27:14;12.23;;;4.97;;
7525;SDS011;3804;50.860;6.208;2023-03-14T16:29:41;11.93;;;4.50;;